Time;durP1;ratioP1;P1;durP2;ratioP2;P2;SDS_P1;SDS_P2;PMS_P1;PMS_P2;Temp;Humidity;BMP_temperature;BMP_pressure;BME280_temperature;BME280_humidity;BME280_pressure;Samples;Min_cycle;Max_cycle;Signal;HPM_P1;HPM_P2
2023/07/03 00:01:44;;;;;;;10.27;5.53;;;13.70;1.00;;;;;;5076184;28;20230;-83
2023/07/03 00:04:11;;;;;;;9.30;5.43;;;13.70;1.00;;;;;;5071411;28;20195;-83
2023/07/03 00:06:39;;;;;;;9.27;5.40;;;13.70;1.00;;;;;;5070137;28;20210;-84
2023/07/03 00:09:06;;;;;;;10.87;5.40;;;13.70;8.00;;;;;;5061112;28;20200;-83
2023/07/03 00:11:36;;;;;;;11.13;5.63;;;13.60;10.50;;;;;;5069512;28;20333;-83
2023/07/03 00:14:03;;;;;;;11.37;5.67;;;13.60;1.00;;;;;;5069925;28;20211;-83
2023/07/03 00:16:30;;;;;;;11.20;5.83;;;13.50;74.00;;;;;;5072113;28;20190;-83
2023/07/03 00:18:56;;;;;;;12.67;5.77;;;13.50;99.90;;;;;;5074803;28;20225;-83
2023/07/03 00:21:25;;;;;;;11.00;5.63;;;13.50;99.90;;;;;;5072411;28;20201;-82
2023/07/03 00:23:53;;;;;;;12.43;5.90;;;13.50;99.90;;;;;;5073536;28;20206;-83
2023/07/03 00:26:20;;;;;;;11.27;5.67;;;13.40;99.90;;;;;;5070149;28;20243;-82
2023/07/03 00:28:47;;;;;;;13.97;5.67;;;13.40;99.90;;;;;;5071667;28;20235;-83
2023/07/03 00:31:14;;;;;;;14.17;6.20;;;13.30;99.90;;;;;;5071242;28;20194;-83
2023/07/03 00:33:41;;;;;;;18.37;5.70;;;13.30;99.90;;;;;;5066153;28;20202;-83
2023/07/03 00:36:09;;;;;;;9.13;5.30;;;13.30;99.90;;;;;;5074585;28;20676;-83
2023/07/03 00:38:36;;;;;;;11.00;5.50;;;13.20;99.90;;;;;;5070674;28;20233;-83
2023/07/03 00:41:04;;;;;;;12.17;5.53;;;13.20;99.90;;;;;;5078738;28;20206;-83
2023/07/03 00:43:33;;;;;;;14.30;5.67;;;13.20;99.90;;;;;;5078441;28;20247;-83
2023/07/03 00:46:00;;;;;;;12.47;6.07;;;13.10;99.90;;;;;;5070841;28;20313;-83
2023/07/03 00:48:27;;;;;;;9.30;5.50;;;13.20;99.90;;;;;;5073779;28;20252;-83
2023/07/03 00:50:54;;;;;;;10.30;5.47;;;13.20;99.90;;;;;;5075622;28;20254;-83
2023/07/03 00:53:21;;;;;;;11.17;5.20;;;13.20;99.90;;;;;;5069922;28;20196;-83
2023/07/03 00:55:48;;;;;;;10.73;5.40;;;13.20;99.90;;;;;;5068513;28;20668;-83
2023/07/03 00:58:16;;;;;;;8.80;5.10;;;13.30;99.90;;;;;;5070589;28;20252;-84
2023/07/03 01:00:49;;;;;;;11.70;5.00;;;13.40;99.90;;;;;;5071169;28;20677;-83
2023/07/03 01:03:23;;;;;;;12.73;5.73;;;13.50;99.90;;;;;;5071820;28;20218;-83
2023/07/03 01:05:52;;;;;;;9.60;5.27;;;13.50;99.90;;;;;;5070498;28;20199;-83
2023/07/03 01:08:19;;;;;;;13.30;5.40;;;13.50;99.90;;;;;;5069713;28;20261;-83
2023/07/03 01:10:46;;;;;;;9.77;5.63;;;13.40;99.90;;;;;;5078352;28;20224;-84
2023/07/03 01:13:18;;;;;;;11.83;5.80;;;13.30;99.90;;;;;;5075928;28;20240;-83
2023/07/03 01:15:46;;;;;;;12.53;5.50;;;13.20;99.90;;;;;;5072209;28;20230;-83
2023/07/03 01:18:14;;;;;;;9.30;5.37;;;13.20;99.90;;;;;;5072507;28;20196;-82
2023/07/03 01:20:44;;;;;;;12.33;5.73;;;13.10;99.90;;;;;;5070620;28;20201;-83
2023/07/03 01:23:20;;;;;;;9.43;5.33;;;13.10;99.90;;;;;;5071108;28;20740;-83
2023/07/03 01:25:50;;;;;;;10.13;5.73;;;13.10;99.90;;;;;;5066428;28;20192;-82
2023/07/03 01:28:20;;;;;;;14.33;5.70;;;13.10;99.90;;;;;;5066395;28;20848;-83
2023/07/03 01:30:49;;;;;;;12.23;5.67;;;13.10;1.00;;;;;;5065978;28;20254;-83
2023/07/03 01:33:21;;;;;;;8.30;5.70;;;13.10;1.00;;;;;;5062993;28;20250;-84
2023/07/03 01:35:51;;;;;;;9.77;6.17;;;13.10;1.00;;;;;;5069720;28;20204;-83
2023/07/03 01:38:20;;;;;;;10.80;5.83;;;13.10;1.00;;;;;;5064886;28;20228;-83
2023/07/03 01:40:48;;;;;;;9.83;6.00;;;13.10;99.90;;;;;;5071016;28;20255;-83
2023/07/03 01:43:16;;;;;;;10.00;5.97;;;13.00;1.00;;;;;;5070697;28;20813;-83
2023/07/03 01:45:43;;;;;;;12.57;6.33;;;12.90;1.00;;;;;;5066217;28;20546;-83
2023/07/03 01:48:11;;;;;;;14.73;6.67;;;12.90;1.00;;;;;;5071464;28;20243;-83
2023/07/03 01:50:39;;;;;;;11.37;5.80;;;12.90;1.00;;;;;;5069537;28;20229;-83
2023/07/03 01:53:11;;;;;;;13.00;5.23;;;12.80;1.00;;;;;;5069780;28;20231;-83
2023/07/03 01:55:45;;;;;;;12.97;6.47;;;12.90;1.00;;;;;;5064813;28;20623;-83
2023/07/03 01:58:23;;;;;;;13.00;6.20;;;12.80;1.00;;;;;;5070110;28;20185;-83
2023/07/03 02:00:52;;;;;;;10.53;6.13;;;12.80;1.00;;;;;;5070691;28;20655;-83
2023/07/03 02:03:25;;;;;;;9.03;6.03;;;12.80;1.00;;;;;;5071122;28;20199;-83
2023/07/03 02:05:55;;;;;;;10.13;5.47;;;12.80;1.00;;;;;;5068483;28;20249;-83
2023/07/03 02:08:25;;;;;;;12.17;6.33;;;12.70;1.00;;;;;;5070673;28;20219;-83
2023/07/03 02:10:52;;;;;;;13.73;6.10;;;12.70;1.00;;;;;;5069398;28;20243;-85
2023/07/03 02:13:20;;;;;;;9.63;5.80;;;12.70;1.00;;;;;;5066370;28;20200;-84
2023/07/03 02:15:47;;;;;;;9.90;5.50;;;12.60;1.00;;;;;;5070001;28;20270;-84
2023/07/03 02:18:17;;;;;;;11.87;5.80;;;12.60;1.00;;;;;;5061909;28;20189;-84
2023/07/03 02:20:45;;;;;;;11.50;6.43;;;12.50;1.00;;;;;;5068938;28;20224;-84
2023/07/03 02:23:12;;;;;;;12.23;6.57;;;12.50;1.00;;;;;;5063572;28;20193;-84
2023/07/03 02:25:39;;;;;;;12.33;5.77;;;;;;;;;;5069149;28;20200;-84
2023/07/03 02:28:07;;;;;;;13.17;6.40;;;;;;;;;;5066695;28;20266;-84
2023/07/03 02:30:36;;;;;;;11.80;6.00;;;;;;;;;;5068562;28;20239;-84
2023/07/03 02:33:03;;;;;;;12.60;6.43;;;;;;;;;;5071835;28;20196;-83
2023/07/03 02:35:30;;;;;;;12.40;6.27;;;;;;;;;;5065348;28;20566;-84
2023/07/03 02:37:57;;;;;;;10.83;6.30;;;;;;;;;;5069620;28;20227;-84
2023/07/03 02:40:25;;;;;;;9.77;6.40;;;;;;;;;;5071432;28;20201;-84
2023/07/03 02:42:52;;;;;;;12.87;6.43;;;;;;;;;;5066252;28;20253;-84
2023/07/03 02:45:19;;;;;;;13.33;6.17;;;;;;;;;;5073836;28;20231;-84
2023/07/03 02:47:48;;;;;;;10.17;6.00;;;;;;;;;;5062827;28;20215;-84
2023/07/03 02:50:15;;;;;;;12.23;6.30;;;;;;;;;;5066631;28;20197;-84
2023/07/03 02:52:42;;;;;;;14.30;6.60;;;;;;;;;;5070484;28;20663;-84
2023/07/03 02:55:10;;;;;;;12.00;5.83;;;;;;;;;;5070559;28;20199;-84
2023/07/03 02:57:37;;;;;;;14.30;6.37;;;;;;;;;;5077076;28;20676;-84
2023/07/03 03:00:05;;;;;;;9.73;6.33;;;;;;;;;;5071930;28;20295;-84
2023/07/03 03:02:33;;;;;;;11.27;6.53;;;;;;;;;;5060670;28;20222;-84
2023/07/03 03:05:01;;;;;;;12.07;5.77;;;;;;;;;;5074283;28;20275;-84
2023/07/03 03:07:28;;;;;;;12.07;6.07;;;;;;;;;;5073997;28;20569;-84
2023/07/03 03:09:56;;;;;;;11.80;6.30;;;;;;;;;;5070204;28;20235;-84
2023/07/03 03:12:23;;;;;;;12.43;6.17;;;;;;;;;;5064329;28;20225;-84
2023/07/03 03:14:50;;;;;;;11.67;6.37;;;;;;;;;;5063330;28;20201;-84
2023/07/03 03:17:17;;;;;;;12.07;6.13;;;;;;;;;;5070526;28;20204;-84
2023/07/03 03:19:45;;;;;;;10.60;6.30;;;;;;;;;;5079483;28;20197;-84
2023/07/03 03:22:14;;;;;;;14.93;6.47;;;;;;;;;;5070474;28;20272;-84
2023/07/03 03:24:41;;;;;;;12.47;6.30;;;;;;;;;;5075610;28;20255;-84
2023/07/03 03:27:08;;;;;;;11.43;5.93;;;;;;;;;;5076030;28;20313;-84
2023/07/03 03:29:36;;;;;;;11.80;6.17;;;;;;;;;;5070772;28;20733;-84
2023/07/03 03:32:03;;;;;;;10.17;5.83;;;;;;;;;;5072219;28;20202;-85
2023/07/03 03:34:32;;;;;;;12.43;6.10;;;;;;;;;;5084610;28;20271;-84
2023/07/03 03:36:59;;;;;;;12.77;6.17;;;;;;;;;;5069049;28;20268;-85
2023/07/03 03:39:28;;;;;;;15.37;5.83;;;;;;;;;;5068839;28;20248;-84
2023/07/03 03:41:55;;;;;;;14.30;6.03;;;;;;;;;;5074686;28;20252;-85
2023/07/03 03:44:22;;;;;;;11.40;6.20;;;;;;;;;;5068041;28;20257;-84
2023/07/03 03:46:50;;;;;;;15.63;6.30;;;;;;;;;;5067970;28;20206;-84
2023/07/03 03:49:17;;;;;;;16.43;6.30;;;;;;;;;;5069127;28;20246;-85
2023/07/03 03:51:44;;;;;;;10.97;5.43;;;;;;;;;;5069783;28;20220;-85
2023/07/03 03:54:11;;;;;;;8.67;5.63;;;;;;;;;;5071363;28;20686;-85
2023/07/03 03:56:40;;;;;;;10.00;5.63;;;;;;;;;;5074329;28;20209;-84
2023/07/03 03:59:07;;;;;;;10.23;5.50;;;;;;;;;;5068952;28;20235;-84
2023/07/03 04:01:34;;;;;;;9.77;5.77;;;;;;;;;;5071082;28;20195;-85
2023/07/03 04:04:02;;;;;;;10.57;5.70;;;;;;;;;;5077234;28;20206;-85
2023/07/03 04:06:29;;;;;;;13.33;5.73;;;;;;;;;;5072487;28;20207;-84
2023/07/03 04:08:58;;;;;;;10.10;5.83;;;;;;;;;;5072985;28;20766;-84
2023/07/03 04:11:25;;;;;;;10.40;5.77;;;;;;;;;;5070728;28;20224;-84
2023/07/03 04:13:54;;;;;;;10.60;6.10;;;;;;;;;;5072454;28;20199;-84
2023/07/03 04:16:22;;;;;;;11.10;5.70;;;;;;;;;;5071183;28;20199;-84
2023/07/03 04:18:49;;;;;;;11.98;5.60;;;;;;;;;;5072740;28;20283;-85
2023/07/03 04:21:16;;;;;;;14.83;5.87;;;;;;;;;;5069026;28;20549;-84
2023/07/03 04:23:43;;;;;;;9.80;5.47;;;;;;;;;;5064651;28;20206;-84
2023/07/03 04:26:11;;;;;;;12.27;5.70;;;;;;;;;;5064600;28;20199;-84
2023/07/03 04:28:38;;;;;;;10.23;5.30;;;;;;;;;;5080007;28;20279;-84
2023/07/03 04:31:06;;;;;;;8.68;5.07;;;;;;;;;;5071888;28;20287;-84
2023/07/03 04:33:34;;;;;;;11.05;5.72;;;;;;;;;;5076812;28;20202;-84
2023/07/03 04:36:01;;;;;;;13.90;6.07;;;;;;;;;;5066778;28;20193;-84
2023/07/03 04:38:28;;;;;;;14.93;5.60;;;;;;;;;;5069757;28;20962;-84
2023/07/03 04:40:56;;;;;;;11.43;6.05;;;;;;;;;;5071562;28;20202;-84
2023/07/03 04:43:23;;;;;;;11.85;5.70;;;;;;;;;;5075306;28;20284;-84
2023/07/03 04:45:51;;;;;;;13.85;5.43;;;;;;;;;;5069773;28;20679;-84
2023/07/03 04:48:20;;;;;;;8.88;5.13;;;;;;;;;;5072838;28;20764;-84
2023/07/03 04:50:49;;;;;;;10.07;5.68;;;;;;;;;;5071829;28;20218;-84
2023/07/03 04:53:16;;;;;;;11.55;5.65;;;16.20;99.90;;;;;;5077355;28;20194;-85
2023/07/03 04:55:43;;;;;;;10.18;5.70;;;16.20;99.90;;;;;;5069690;28;20196;-84
2023/07/03 04:58:11;;;;;;;12.48;5.20;;;16.10;1.00;;;;;;5071468;28;20248;-83
2023/07/03 05:00:39;;;;;;;10.32;5.85;;;16.10;1.00;;;;;;5067572;28;20203;-84
2023/07/03 05:03:07;;;;;;;11.05;5.97;;;16.10;1.00;;;;;;5065846;28;20795;-84
2023/07/03 05:05:36;;;;;;;9.98;5.65;;;16.10;1.00;;;;;;5071304;28;20256;-83
2023/07/03 05:08:03;;;;;;;7.68;5.43;;;16.00;1.00;;;;;;5067770;28;20257;-83
2023/07/03 05:10:30;;;;;;;14.43;6.07;;;15.90;1.00;;;;;;5072913;28;20656;-84
2023/07/03 05:12:57;;;;;;;11.05;6.20;;;15.90;1.00;;;;;;5073427;28;20280;-83
2023/07/03 05:15:25;;;;;;;11.07;5.88;;;15.90;99.90;;;;;;5068791;28;20280;-84
2023/07/03 05:17:54;;;;;;;9.82;5.90;;;15.90;99.90;;;;;;5064646;28;20195;-84
2023/07/03 05:20:23;;;;;;;10.63;5.75;;;15.90;1.00;;;;;;5070379;28;20212;-83
2023/07/03 05:22:51;;;;;;;13.18;5.78;;;15.80;99.90;;;;;;5069024;28;20192;-84
2023/07/03 05:25:19;;;;;;;10.55;6.22;;;15.90;99.90;;;;;;5067660;28;20408;-84
2023/07/03 05:27:47;;;;;;;10.70;6.55;;;15.90;99.90;;;;;;5064204;28;20300;-83
2023/07/03 05:30:14;;;;;;;10.45;6.03;;;15.90;99.90;;;;;;5063439;28;20218;-84
2023/07/03 05:32:41;;;;;;;9.20;5.38;;;15.90;99.90;;;;;;5061860;28;20221;-84
2023/07/03 05:35:09;;;;;;;10.15;6.05;;;15.90;99.90;;;;;;5066930;28;20205;-84
2023/07/03 05:37:36;;;;;;;16.42;6.45;;;15.90;99.90;;;;;;5075011;28;20334;-84
2023/07/03 05:40:07;;;;;;;11.55;5.75;;;15.90;99.90;;;;;;5065312;28;20207;-84
2023/07/03 05:42:35;;;;;;;10.52;6.10;;;15.90;99.90;;;;;;5069303;28;20674;-84
2023/07/03 05:45:02;;;;;;;11.30;7.00;;;15.90;99.90;;;;;;5064834;28;20203;-84
2023/07/03 05:47:29;;;;;;;13.02;6.18;;;15.90;99.90;;;;;;5062910;28;20233;-84
2023/07/03 05:49:57;;;;;;;15.75;6.90;;;15.90;99.90;;;;;;5063624;28;20708;-84
2023/07/03 05:52:24;;;;;;;13.90;7.13;;;15.90;99.90;;;;;;5071451;28;20192;-85
2023/07/03 05:54:51;;;;;;;15.48;6.68;;;15.90;99.90;;;;;;5072636;28;20207;-84
2023/07/03 05:57:20;;;;;;;13.40;6.70;;;15.90;99.90;;;;;;5068639;28;20200;-84
2023/07/03 05:59:48;;;;;;;12.25;6.05;;;15.90;99.90;;;;;;5067028;28;20348;-84
2023/07/03 06:02:16;;;;;;;12.73;5.88;;;15.90;99.90;;;;;;5064449;28;20305;-84
2023/07/03 06:04:43;;;;;;;11.90;6.38;;;16.10;99.90;;;;;;5068177;28;20226;-84
2023/07/03 06:07:11;;;;;;;19.65;7.40;;;16.20;99.90;;;;;;5069799;28;20200;-84
2023/07/03 06:09:38;;;;;;;12.20;6.38;;;16.50;99.90;;;;;;5068963;28;20251;-84
2023/07/03 06:12:06;;;;;;;12.75;6.40;;;17.00;99.90;;;;;;5073763;28;20581;-84
2023/07/03 06:14:35;;;;;;;11.73;6.10;;;17.40;99.90;;;;;;5069820;28;20232;-85
2023/07/03 06:17:02;;;;;;;14.75;6.80;;;17.60;99.90;;;;;;5068592;28;20277;-85
2023/07/03 06:19:29;;;;;;;14.82;7.18;;;18.00;99.90;;;;;;5074313;28;20224;-84
2023/07/03 06:21:57;;;;;;;13.15;6.65;;;18.50;60.00;;;;;;5069633;28;20626;-84
2023/07/03 06:24:24;;;;;;;12.93;6.20;;;18.90;1.00;;;;;;5070345;28;20263;-85
2023/07/03 06:26:52;;;;;;;13.52;6.40;;;19.10;1.00;;;;;;5069474;28;20296;-85
2023/07/03 06:29:19;;;;;;;14.43;6.38;;;19.40;1.00;;;;;;5068480;28;20301;-85
2023/07/03 06:31:48;;;;;;;14.77;5.82;;;19.50;1.00;;;;;;5073408;28;20223;-85
2023/07/03 06:34:15;;;;;;;12.85;5.97;;;19.70;1.00;;;;;;5073095;28;20188;-85
2023/07/03 06:36:42;;;;;;;11.48;5.55;;;19.80;1.00;;;;;;5070910;28;20241;-85
2023/07/03 06:39:10;;;;;;;10.82;5.90;;;19.90;1.00;;;;;;5059992;28;20310;-85
2023/07/03 06:41:37;;;;;;;12.20;5.30;;;20.00;1.00;;;;;;5060312;28;20196;-85
2023/07/03 06:44:05;;;;;;;10.35;5.80;;;20.10;1.00;;;;;;5070344;28;20203;-84
2023/07/03 06:46:33;;;;;;;9.27;5.70;;;20.20;1.00;;;;;;5070291;28;20230;-85
2023/07/03 06:49:01;;;;;;;12.43;5.53;;;20.20;1.00;;;;;;5072799;28;20216;-84
2023/07/03 06:51:28;;;;;;;10.18;5.70;;;20.20;1.00;;;;;;5074944;28;20195;-85
2023/07/03 06:53:56;;;;;;;10.90;6.10;;;20.40;1.00;;;;;;5072127;28;20204;-85
2023/07/03 06:56:23;;;;;;;9.88;5.47;;;20.60;1.00;;;;;;5072979;28;20671;-85
2023/07/03 06:58:51;;;;;;;16.02;6.85;;;20.70;1.00;;;;;;5066225;28;20234;-85
2023/07/03 07:01:23;;;;;;;11.60;5.90;;;20.80;1.00;;;;;;5068383;28;20243;-84
2023/07/03 07:03:51;;;;;;;11.48;5.75;;;20.90;1.00;;;;;;5067840;28;20237;-84
2023/07/03 07:06:22;;;;;;;13.52;5.70;;;21.00;1.00;;;;;;5073205;28;20617;-84
2023/07/03 07:08:49;;;;;;;12.27;6.07;;;20.90;1.00;;;;;;5067818;28;20566;-85
2023/07/03 07:11:20;;;;;;;12.18;5.88;;;20.90;1.00;;;;;;5067250;28;20593;-85
2023/07/03 07:13:48;;;;;;;12.30;6.28;;;20.90;1.00;;;;;;5069784;28;20224;-85
2023/07/03 07:16:17;;;;;;;8.80;5.55;;;21.10;1.00;;;;;;5074084;28;20370;-85
2023/07/03 07:18:46;;;;;;;12.38;5.97;;;21.40;1.00;;;;;;5072996;28;20261;-85
2023/07/03 07:21:14;;;;;;;10.07;5.38;;;21.80;1.00;;;;;;5077472;28;20191;-85
2023/07/03 07:23:42;;;;;;;9.00;5.05;;;22.00;99.90;;;;;;5072433;28;20278;-85
2023/07/03 07:26:09;;;;;;;10.15;5.15;;;22.30;99.90;;;;;;5072004;28;20743;-85
2023/07/03 07:28:36;;;;;;;11.88;5.60;;;22.30;99.90;;;;;;5077304;28;20256;-85
2023/07/03 07:31:03;;;;;;;8.50;5.50;;;22.40;99.90;;;;;;5071659;28;20200;-85
2023/07/03 07:33:30;;;;;;;13.98;5.93;;;22.60;99.90;;;;;;5075330;28;20245;-84
2023/07/03 07:35:57;;;;;;;15.23;5.72;;;23.00;99.90;;;;;;5071627;28;20289;-84
2023/07/03 07:38:24;;;;;;;9.65;5.43;;;23.20;99.90;;;;;;5067808;28;20740;-84
2023/07/03 07:41:01;;;;;;;14.48;5.97;;;23.50;99.90;;;;;;5075838;28;20192;-85
2023/07/03 07:43:29;;;;;;;8.60;4.80;;;23.70;99.90;;;;;;5067509;28;20285;-85
2023/07/03 07:45:56;;;;;;;11.85;4.93;;;23.90;99.90;;;;;;5069427;28;20279;-85
2023/07/03 07:48:23;;;;;;;8.38;4.32;;;24.10;99.90;;;;;;5073083;28;20196;-84
2023/07/03 07:50:50;;;;;;;9.93;4.40;;;24.20;99.90;;;;;;5074784;28;20199;-85
2023/07/03 07:53:17;;;;;;;10.18;4.45;;;24.30;99.90;;;;;;5059143;28;20262;-85
2023/07/03 07:55:44;;;;;;;18.38;5.85;;;24.50;99.90;;;;;;5067857;28;20192;-84
2023/07/03 07:58:13;;;;;;;10.05;4.80;;;24.60;99.90;;;;;;5069855;28;20570;-85
2023/07/03 08:00:40;;;;;;;13.68;4.82;;;24.90;99.90;;;;;;5066552;28;20196;-84
2023/07/03 08:03:08;;;;;;;9.82;4.45;;;25.00;99.90;;;;;;5068737;28;20258;-85
2023/07/03 08:05:37;;;;;;;10.07;4.57;;;24.90;99.90;;;;;;5068205;28;20569;-85
2023/07/03 08:08:05;;;;;;;9.95;4.63;;;24.90;99.90;;;;;;5069634;28;20197;-84
2023/07/03 08:10:32;;;;;;;9.65;4.75;;;24.80;99.90;;;;;;5066982;28;20591;-84
2023/07/03 08:13:00;;;;;;;8.52;4.70;;;25.00;99.90;;;;;;5072279;28;20739;-85
2023/07/03 08:15:28;;;;;;;11.40;4.97;;;25.00;99.90;;;;;;5072520;28;20281;-84
2023/07/03 08:17:55;;;;;;;9.32;4.95;;;24.70;99.90;;;;;;5073587;28;20285;-85
2023/07/03 08:20:22;;;;;;;8.60;4.50;;;24.40;99.90;;;;;;5073644;28;20234;-85
2023/07/03 08:22:49;;;;;;;10.15;4.88;;;24.20;99.90;;;;;;5071942;28;20227;-84
2023/07/03 08:25:17;;;;;;;9.68;4.95;;;24.10;99.90;;;;;;5065597;28;20679;-84
2023/07/03 08:27:47;;;;;;;7.70;4.35;;;24.10;99.90;;;;;;5068990;28;20320;-85
2023/07/03 08:30:15;;;;;;;9.02;4.65;;;24.10;99.90;;;;;;5069155;28;20220;-85
2023/07/03 08:32:43;;;;;;;8.45;4.38;;;24.30;99.90;;;;;;5074211;28;20199;-85
2023/07/03 08:35:11;;;;;;;11.27;4.22;;;24.40;99.90;;;;;;5064628;28;20204;-84
2023/07/03 08:37:38;;;;;;;12.13;3.90;;;24.60;99.90;;;;;;5073080;28;20208;-85
2023/07/03 08:40:07;;;;;;;8.40;3.90;;;24.90;99.90;;;;;;5073545;28;20196;-84
2023/07/03 08:42:39;;;;;;;12.20;4.40;;;25.00;99.90;;;;;;5078693;28;20210;-85
2023/07/03 08:45:11;;;;;;;9.48;4.10;;;25.20;99.90;;;;;;5061464;28;20254;-85
2023/07/03 08:47:40;;;;;;;12.73;4.35;;;25.30;99.90;;;;;;5065751;28;20204;-84
2023/07/03 08:50:12;;;;;;;12.60;4.30;;;25.40;99.90;;;;;;5070698;28;20212;-85
2023/07/03 08:52:42;;;;;;;8.45;4.00;;;25.30;99.90;;;;;;5076927;28;20224;-84
2023/07/03 08:55:15;;;;;;;8.68;4.22;;;25.30;99.90;;;;;;5072651;28;20245;-84
2023/07/03 08:57:42;;;;;;;12.05;4.65;;;25.20;99.90;;;;;;5066772;28;20622;-85
2023/07/03 09:00:11;;;;;;;7.03;3.92;;;25.20;99.90;;;;;;5064872;28;20196;-84
2023/07/03 09:02:44;;;;;;;9.25;4.60;;;25.10;99.90;;;;;;5069430;28;20666;-85
2023/07/03 09:05:26;;;;;;;9.35;4.30;;;25.20;99.90;;;;;;5076659;28;20196;-85
2023/07/03 09:07:56;;;;;;;10.10;4.63;;;25.30;99.90;;;;;;5059051;28;20188;-84
2023/07/03 09:10:28;;;;;;;10.30;4.35;;;25.20;99.90;;;;;;5072548;28;20270;-84
2023/07/03 09:13:06;;;;;;;12.05;4.63;;;25.10;99.90;;;;;;5060712;28;20281;-84
2023/07/03 09:15:38;;;;;;;13.65;5.18;;;25.10;99.90;;;;;;5065701;28;20227;-84
2023/07/03 09:18:12;;;;;;;8.20;4.70;;;25.20;99.90;;;;;;5069803;28;20261;-85
2023/07/03 09:20:42;;;;;;;10.82;4.32;;;25.40;99.90;;;;;;5068828;28;20250;-84
2023/07/03 09:23:17;;;;;;;9.07;4.57;;;25.30;99.90;;;;;;5068360;28;20207;-85
2023/07/03 09:25:50;;;;;;;10.00;5.22;;;25.00;99.90;;;;;;5063075;28;20207;-85
2023/07/03 09:28:17;;;;;;;10.48;4.97;;;24.80;99.90;;;;;;5074554;28;20247;-85
2023/07/03 09:30:44;;;;;;;13.65;5.43;;;24.60;99.90;;;;;;5068603;28;20216;-85
2023/07/03 09:33:11;;;;;;;10.25;6.60;;;24.40;99.90;;;;;;5069193;28;20300;-85
2023/07/03 09:35:41;;;;;;;13.05;6.25;;;24.20;99.90;;;;;;5066611;28;20201;-84
2023/07/03 09:38:12;;;;;;;10.27;5.18;;;24.10;99.90;;;;;;5072603;28;20202;-84
2023/07/03 09:40:42;;;;;;;11.88;6.28;;;24.20;99.90;;;;;;5076676;28;20249;-84
2023/07/03 09:43:14;;;;;;;18.95;11.35;;;24.30;99.90;;;;;;5067894;28;20196;-84
2023/07/03 09:45:42;;;;;;;15.63;11.15;;;24.40;99.90;;;;;;5062647;28;20236;-85
2023/07/03 09:48:18;;;;;;;13.05;5.38;;;24.30;99.90;;;;;;5071085;28;20219;-84
2023/07/03 09:50:46;;;;;;;13.55;6.80;;;24.20;99.90;;;;;;5065611;28;20221;-84
2023/07/03 09:53:19;;;;;;;35.15;7.85;;;24.30;99.90;;;;;;5068072;28;20205;-85
2023/07/03 09:55:51;;;;;;;11.25;5.22;;;24.40;99.90;;;;;;5074249;28;20224;-84
2023/07/03 09:58:18;;;;;;;9.35;5.05;;;24.50;99.90;;;;;;5069319;28;20250;-84
2023/07/03 10:00:47;;;;;;;9.48;5.90;;;24.50;99.90;;;;;;5061561;28;20290;-85
2023/07/03 10:03:22;;;;;;;11.20;5.15;;;24.30;99.90;;;;;;5070650;28;20745;-85
2023/07/03 10:05:51;;;;;;;16.48;5.85;;;24.10;99.90;;;;;;5067822;28;20205;-85
2023/07/03 10:08:21;;;;;;;12.07;5.97;;;23.90;99.90;;;;;;5067367;28;20197;-85
2023/07/03 10:10:49;;;;;;;16.98;8.75;;;23.70;99.90;;;;;;5072324;28;20760;-85
2023/07/03 10:13:21;;;;;;;23.30;12.48;;;23.60;99.90;;;;;;5074280;28;20192;-84
2023/07/03 10:15:51;;;;;;;11.38;6.55;;;23.60;99.90;;;;;;5070300;28;20250;-83
2023/07/03 10:18:24;;;;;;;14.57;6.35;;;23.70;99.90;;;;;;5073630;28;20224;-84
2023/07/03 10:20:53;;;;;;;9.90;4.88;;;23.80;99.90;;;;;;5062236;28;20259;-84
2023/07/03 10:23:23;;;;;;;13.38;6.13;;;23.90;99.90;;;;;;5064455;28;20197;-84
2023/07/03 10:25:54;;;;;;;13.02;6.47;;;24.10;99.90;;;;;;5072198;28;20257;-83
2023/07/03 10:28:26;;;;;;;8.73;5.25;;;24.10;99.90;;;;;;5072763;28;20236;-85
2023/07/03 10:30:59;;;;;;;15.18;5.35;;;24.10;99.90;;;;;;5069820;28;20240;-85
2023/07/03 10:33:32;;;;;;;13.10;5.25;;;24.10;99.90;;;;;;5068308;28;20245;-84
2023/07/03 10:36:03;;;;;;;11.10;5.05;;;24.20;99.90;;;;;;5069724;28;20658;-85
2023/07/03 10:38:38;;;;;;;11.02;4.72;;;24.20;99.90;;;;;;5069092;28;20678;-85
2023/07/03 10:41:12;;;;;;;10.75;5.70;;;24.40;99.90;;;;;;5075487;28;20651;-84
2023/07/03 10:43:44;;;;;;;12.85;4.82;;;24.40;99.90;;;;;;5068517;28;20279;-85
2023/07/03 10:46:21;;;;;;;10.63;4.80;;;24.50;99.90;;;;;;5071949;28;20202;-85
2023/07/03 10:48:49;;;;;;;11.35;4.93;;;24.70;99.90;;;;;;5070501;28;20196;-84
2023/07/03 10:51:22;;;;;;;9.75;4.80;;;25.00;99.90;;;;;;5071523;28;20280;-84
2023/07/03 10:53:54;;;;;;;8.43;4.68;;;25.30;99.90;;;;;;5072774;28;20199;-83
2023/07/03 10:56:24;;;;;;;10.05;4.68;;;25.40;99.90;;;;;;5068570;28;20201;-83
2023/07/03 10:59:08;;;;;;;11.68;4.50;;;25.30;99.90;;;;;;5072253;28;20216;-84
2023/07/03 11:01:42;;;;;;;8.77;3.90;;;25.10;99.90;;;;;;5070484;28;20242;-84
2023/07/03 11:04:20;;;;;;;11.02;3.95;;;25.00;99.90;;;;;;5068849;28;20626;-84
2023/07/03 11:06:58;;;;;;;8.93;4.30;;;25.00;99.90;;;;;;5064423;28;20289;-84
2023/07/03 11:09:34;;;;;;;9.57;4.00;;;24.90;99.90;;;;;;5065172;28;20280;-84
2023/07/03 11:12:09;;;;;;;10.32;3.60;;;24.90;99.90;;;;;;5070583;28;20716;-84
2023/07/03 11:14:47;;;;;;;9.95;4.38;;;24.70;99.90;;;;;;5069632;28;20196;-84
2023/07/03 11:17:26;;;;;;;12.73;5.07;;;24.70;99.90;;;;;;5063569;28;20204;-84
2023/07/03 11:20:00;;;;;;;9.40;4.03;;;24.90;99.90;;;;;;5059587;28;20246;-84
2023/07/03 11:22:32;;;;;;;13.80;5.78;;;25.20;99.90;;;;;;5075734;28;20192;-85
2023/07/03 11:25:11;;;;;;;11.65;4.22;;;25.40;99.90;;;;;;5072497;28;20224;-84
2023/07/03 11:27:48;;;;;;;10.68;3.92;;;25.80;99.90;;;;;;5071714;28;20312;-84
2023/07/03 11:30:16;;;;;;;15.85;4.25;;;26.10;99.90;;;;;;5067346;28;20649;-84
2023/07/03 11:32:45;;;;;;;9.32;4.22;;;26.30;99.90;;;;;;5065625;28;20223;-85
2023/07/03 11:35:14;;;;;;;9.88;3.83;;;26.30;99.90;;;;;;5073384;28;20652;-84
2023/07/03 11:37:49;;;;;;;10.05;3.47;;;26.30;99.90;;;;;;5076095;28;20558;-84
2023/07/03 11:40:36;;;;;;;8.65;3.78;;;26.50;99.90;;;;;;5073425;28;20286;-84
2023/07/03 11:43:24;;;;;;;8.13;3.85;;;26.80;99.90;;;;;;5068381;28;20196;-84
2023/07/03 11:46:03;;;;;;;7.95;3.80;;;27.20;99.90;;;;;;5071464;28;20236;-84
2023/07/03 11:48:33;;;;;;;7.45;3.30;;;27.50;99.90;;;;;;5071866;28;20199;-85
2023/07/03 11:51:03;;;;;;;7.32;3.80;;;27.60;99.90;;;;;;5069452;28;20218;-85
2023/07/03 11:53:37;;;;;;;9.50;3.92;;;27.60;99.90;;;;;;5068936;28;20192;-84
2023/07/03 11:56:06;;;;;;;6.20;3.55;;;27.70;99.90;;;;;;5065781;28;20812;-84
2023/07/03 11:58:35;;;;;;;8.02;3.55;;;27.90;99.90;;;;;;5076449;28;20681;-84
2023/07/03 12:01:25;;;;;;;8.32;3.97;;;27.80;99.90;;;;;;5082281;28;20278;-84
2023/07/03 12:03:54;;;;;;;10.20;3.78;;;27.70;99.90;;;;;;5070598;28;20257;-84
2023/07/03 12:06:46;;;;;;;8.30;3.67;;;27.50;99.90;;;;;;5074636;28;20554;-84
2023/07/03 12:09:38;;;;;;;7.55;3.50;;;27.10;99.90;;;;;;5064729;28;20579;-85
2023/07/03 12:12:20;;;;;;;6.60;3.60;;;26.80;99.90;;;;;;5054956;28;20251;-85
2023/07/03 12:14:57;;;;;;;11.15;3.45;;;26.60;99.90;;;;;;5070876;28;20242;-84
2023/07/03 12:17:27;;;;;;;7.18;3.80;;;26.60;99.90;;;;;;5073566;28;20777;-85
2023/07/03 12:19:57;;;;;;;10.65;3.88;;;26.60;99.90;;;;;;5074383;28;20745;-85
2023/07/03 12:22:26;;;;;;;10.98;4.00;;;26.40;99.90;;;;;;5072272;28;20614;-85
2023/07/03 12:25:19;;;;;;;6.90;3.65;;;26.30;99.90;;;;;;5079331;28;20742;-86
2023/07/03 12:27:47;;;;;;;7.38;3.95;;;26.20;99.90;;;;;;5065984;28;20220;-84
2023/07/03 12:30:23;;;;;;;10.35;3.65;;;25.90;99.90;;;;;;5064601;28;20300;-84
2023/07/03 12:32:51;;;;;;;9.80;3.42;;;25.60;99.90;;;;;;5062263;28;20202;-83
2023/07/03 12:35:20;;;;;;;7.93;3.60;;;25.10;99.90;;;;;;5068447;28;20200;-83
2023/07/03 12:37:50;;;;;;;7.22;4.03;;;24.80;99.90;;;;;;5073895;28;20253;-83
2023/07/03 12:40:21;;;;;;;8.43;3.53;;;24.70;99.90;;;;;;5080042;28;20259;-83
2023/07/03 12:42:48;;;;;;;10.43;3.53;;;24.70;99.90;;;;;;5066289;28;20203;-83
2023/07/03 12:45:19;;;;;;;9.55;4.00;;;24.70;99.90;;;;;;5071656;28;20203;-82
2023/07/03 12:47:46;;;;;;;9.65;3.60;;;24.80;99.90;;;;;;5071080;28;20198;-83
2023/07/03 12:50:18;;;;;;;9.98;3.92;;;25.10;99.90;;;;;;5069274;28;20788;-83
2023/07/03 12:52:45;;;;;;;7.18;3.53;;;25.50;99.90;;;;;;5073499;28;20635;-83
2023/07/03 12:55:12;;;;;;;10.32;4.43;;;25.60;99.90;;;;;;5071857;28;20756;-82
2023/07/03 12:57:41;;;;;;;6.90;3.30;;;25.80;99.90;;;;;;5072868;28;20273;-83
2023/07/03 13:00:16;;;;;;;7.10;3.67;;;25.90;99.90;;;;;;5065358;28;20215;-83
2023/07/03 13:02:43;;;;;;;8.00;3.72;;;26.10;99.90;;;;;;5062954;28;20204;-83
2023/07/03 13:05:13;;;;;;;7.63;3.60;;;26.20;99.90;;;;;;5068325;28;20188;-83
2023/07/03 13:07:44;;;;;;;10.55;3.53;;;26.20;99.90;;;;;;5073783;28;20197;-82
2023/07/03 13:10:14;;;;;;;9.90;3.90;;;26.20;99.90;;;;;;5062137;28;20307;-83
2023/07/03 13:12:43;;;;;;;6.90;3.60;;;26.30;99.90;;;;;;5070096;28;20204;-83